createdAt,value
2017-09-11T00:00:28.184Z,3.70
2017-09-11T00:01:28.151Z,3.70
2017-09-11T00:02:28.119Z,3.10
2017-09-11T00:03:28.083Z,3.40
2017-09-11T00:04:28.048Z,3.70
2017-09-11T00:05:28.022Z,3.30
2017-09-11T00:06:27.980Z,3.40
2017-09-11T00:07:27.946Z,3.50
2017-09-11T00:08:27.909Z,3.30
2017-09-11T00:09:27.872Z,3.60
2017-09-11T00:10:27.858Z,3.20
2017-09-11T00:11:27.806Z,3.20
2017-09-11T00:12:27.773Z,3.30
2017-09-11T00:13:27.736Z,3.20
2017-09-11T00:14:27.707Z,3.20
2017-09-11T00:15:27.683Z,2.90
2017-09-11T00:16:27.632Z,3.40
2017-09-11T00:17:27.599Z,3.20
2017-09-11T00:18:27.562Z,3.20
2017-09-11T00:19:27.528Z,3.40
2017-09-11T00:20:27.494Z,3.60
2017-09-11T00:21:27.460Z,3.40
2017-09-11T00:22:27.424Z,3.20
2017-09-11T00:23:27.392Z,3.60
2017-09-11T00:24:27.355Z,3.70
2017-09-11T00:25:27.322Z,3.50
2017-09-11T00:26:27.288Z,3.30
2017-09-11T00:27:27.261Z,3.70
2017-09-11T00:28:27.269Z,3.50
2017-09-11T00:29:27.184Z,3.70
2017-09-11T00:30:27.153Z,3.60
2017-09-11T00:31:27.129Z,3.40
2017-09-11T00:32:27.080Z,3.50
2017-09-11T00:33:27.070Z,3.60
2017-09-11T00:34:27.016Z,3.40
2017-09-11T00:35:26.978Z,3.60
2017-09-11T00:36:26.945Z,3.50
2017-09-11T00:37:26.909Z,3.90
2017-09-11T00:38:26.884Z,3.30
2017-09-11T00:39:26.837Z,3.60
2017-09-11T00:40:26.805Z,3.20
2017-09-11T00:41:26.773Z,3.40
2017-09-11T00:42:26.738Z,3.20
2017-09-11T00:43:26.727Z,3.50
2017-09-11T00:44:26.666Z,3.40
2017-09-11T00:45:26.632Z,3.40
2017-09-11T00:46:26.607Z,3.80
2017-09-11T00:47:26.584Z,3.40
2017-09-11T00:48:26.544Z,3.50
2017-09-11T00:49:26.502Z,3.20
2017-09-11T00:50:26.467Z,3.60
2017-09-11T00:51:26.429Z,3.60
2017-09-11T00:52:26.402Z,3.30
2017-09-11T00:53:26.353Z,3.60
2017-09-11T00:54:26.329Z,3.20
2017-09-11T00:55:26.284Z,3.70
2017-09-11T00:56:26.270Z,3.70
2017-09-11T00:57:26.220Z,3.30
2017-09-11T00:58:26.181Z,3.30
2017-09-11T00:59:26.149Z,3.40
2017-09-11T01:00:26.109Z,3.40
2017-09-11T01:01:26.086Z,3.30
2017-09-11T01:02:26.041Z,3.10
2017-09-11T01:03:26.004Z,3.20
2017-09-11T01:04:25.979Z,3.20
2017-09-11T01:05:25.937Z,3.30
2017-09-11T01:06:25.900Z,3.20
2017-09-11T01:07:25.867Z,3.40
2017-09-11T01:08:25.831Z,3.20
2017-09-11T01:09:25.796Z,3.20
2017-09-11T01:10:25.763Z,3.30
2017-09-11T01:11:25.727Z,3.50
2017-09-11T01:12:25.692Z,3.60
2017-09-11T01:13:25.659Z,3.20
2017-09-11T01:14:25.633Z,3.30
2017-09-11T01:15:25.589Z,3.20
2017-09-11T01:16:25.553Z,3.20
2017-09-11T01:17:25.521Z,3.30
2017-09-11T01:18:25.484Z,3.30
2017-09-11T01:19:25.447Z,3.40
2017-09-11T01:20:25.414Z,3.30
2017-09-11T01:21:25.378Z,3.40
2017-09-11T01:22:25.344Z,3.40
2017-09-11T01:23:25.309Z,3.70
2017-09-11T01:24:25.271Z,3.10
2017-09-11T01:25:25.240Z,3.50
2017-09-11T01:26:25.205Z,3.30
2017-09-11T01:27:25.205Z,3.50
2017-09-11T01:28:25.139Z,3.40
2017-09-11T01:29:25.101Z,3.50
2017-09-11T01:30:25.066Z,3.40
2017-09-11T01:31:25.029Z,4.30
2017-09-11T01:32:24.994Z,3.60
2017-09-11T01:33:24.960Z,3.40
2017-09-11T01:34:24.926Z,3.30
2017-09-11T01:35:24.892Z,3.40
2017-09-11T01:36:24.856Z,3.80
2017-09-11T01:37:24.822Z,3.80
2017-09-11T01:38:24.799Z,3.40
2017-09-11T01:39:24.754Z,3.60
2017-09-11T01:40:24.717Z,3.70
2017-09-11T01:41:24.693Z,3.50
2017-09-11T01:42:24.645Z,3.10
2017-09-11T01:43:24.615Z,3.30
2017-09-11T01:44:24.574Z,3.50
2017-09-11T01:45:24.540Z,3.50
2017-09-11T01:46:24.512Z,3.50
2017-09-11T01:47:24.469Z,3.30
2017-09-11T01:48:24.443Z,3.50
2017-09-11T01:49:24.403Z,3.20
2017-09-11T01:50:24.366Z,3.40
2017-09-11T01:51:24.330Z,3.30
2017-09-11T01:52:24.297Z,3.10
2017-09-11T01:53:24.275Z,3.40
2017-09-11T01:54:24.227Z,3.20
2017-09-11T01:55:24.191Z,3.20
2017-09-11T01:56:24.157Z,3.50
2017-09-11T01:57:24.119Z,3.40
2017-09-11T01:58:24.088Z,3.50
2017-09-11T01:59:24.050Z,3.20
2017-09-11T02:00:24.015Z,3.10
2017-09-11T02:01:23.980Z,3.40
2017-09-11T02:02:23.948Z,3.60
2017-09-11T02:03:23.909Z,3.20
2017-09-11T02:04:23.875Z,3.00
2017-09-11T02:05:23.843Z,3.40
2017-09-11T02:06:23.805Z,3.40
2017-09-11T02:07:23.770Z,3.40
2017-09-11T02:08:23.736Z,3.40
2017-09-11T02:09:23.700Z,3.80
2017-09-11T02:10:23.665Z,3.60
2017-09-11T02:11:23.630Z,3.90
2017-09-11T02:12:23.605Z,3.30
2017-09-11T02:13:23.559Z,3.10
2017-09-11T02:14:23.528Z,3.40
2017-09-11T02:15:23.490Z,3.60
2017-09-11T02:16:23.464Z,3.50
2017-09-11T02:17:23.426Z,3.40
2017-09-11T02:18:23.384Z,3.40
2017-09-11T02:19:23.348Z,3.60
2017-09-11T02:20:23.321Z,3.20
2017-09-11T02:21:23.277Z,3.60
2017-09-11T02:22:23.247Z,3.50
2017-09-11T02:23:23.225Z,3.60
2017-09-11T02:24:23.177Z,4.00
2017-09-11T02:25:23.138Z,3.10
2017-09-11T02:26:23.103Z,3.50
2017-09-11T02:27:23.068Z,3.80
2017-09-11T02:28:23.035Z,3.10
2017-09-11T02:29:22.997Z,3.70
2017-09-11T02:30:22.969Z,3.60
2017-09-11T02:31:22.932Z,3.40
2017-09-11T02:32:22.893Z,3.70
2017-09-11T02:33:22.860Z,3.90
2017-09-11T02:34:22.836Z,3.60
2017-09-11T02:35:22.788Z,3.50
2017-09-11T02:36:22.764Z,3.50
2017-09-11T02:37:22.717Z,3.70
2017-09-11T02:38:22.681Z,3.70
2017-09-11T02:39:22.656Z,3.60
2017-09-11T02:40:22.609Z,3.60
2017-09-11T02:41:22.578Z,3.40
2017-09-11T02:42:22.543Z,3.90
2017-09-11T02:43:22.505Z,3.80
2017-09-11T02:44:22.471Z,3.40
2017-09-11T02:45:22.437Z,3.70
2017-09-11T02:46:22.400Z,3.60
2017-09-11T02:47:22.364Z,3.80
2017-09-11T02:48:22.330Z,3.30
2017-09-11T02:49:22.294Z,3.40
2017-09-11T02:50:22.258Z,3.50
2017-09-11T02:51:22.221Z,3.40
2017-09-11T02:52:22.196Z,3.70
2017-09-11T02:53:22.160Z,3.80
2017-09-11T02:54:22.116Z,3.70
2017-09-11T02:55:22.081Z,3.40
2017-09-11T02:56:22.054Z,3.70
2017-09-11T02:57:22.011Z,3.50
2017-09-11T02:58:21.984Z,3.80
2017-09-11T02:59:21.944Z,3.10
2017-09-11T03:00:21.906Z,3.70
2017-09-11T03:01:21.870Z,3.60
2017-09-11T03:02:21.839Z,3.70
2017-09-11T03:03:21.803Z,3.60
2017-09-11T03:04:21.769Z,3.60
2017-09-11T03:05:21.733Z,3.40
2017-09-11T03:06:21.698Z,3.70
2017-09-11T03:07:21.660Z,3.50
2017-09-11T03:08:21.632Z,3.60
2017-09-11T03:09:21.601Z,3.50
2017-09-11T03:10:21.554Z,3.50
2017-09-11T03:11:21.535Z,3.50
2017-09-11T03:12:21.484Z,3.50
2017-09-11T03:13:21.459Z,3.60
2017-09-11T03:14:21.415Z,3.60
2017-09-11T03:15:21.375Z,3.20
2017-09-11T03:16:21.342Z,3.70
2017-09-11T03:17:21.317Z,3.20
2017-09-11T03:18:21.275Z,3.50
2017-09-11T03:19:21.241Z,3.70
2017-09-11T03:20:21.202Z,3.60
2017-09-11T03:21:21.178Z,3.40
2017-09-11T03:22:21.131Z,3.70
2017-09-11T03:23:21.141Z,3.90
2017-09-11T03:24:21.075Z,3.70
2017-09-11T03:25:21.043Z,3.70
2017-09-11T03:26:21.013Z,3.90
2017-09-11T03:27:20.951Z,3.90
2017-09-11T03:28:20.920Z,3.80
2017-09-11T03:29:20.882Z,3.80
2017-09-11T03:30:20.854Z,3.60
2017-09-11T03:31:20.816Z,3.40
2017-09-11T03:32:20.778Z,3.60
2017-09-11T03:33:20.741Z,3.40
2017-09-11T03:34:20.708Z,3.40
2017-09-11T03:35:20.669Z,3.70
2017-09-11T03:36:20.638Z,3.70
2017-09-11T03:37:20.601Z,3.50
2017-09-11T03:38:20.567Z,3.40
2017-09-11T03:39:20.530Z,3.60
2017-09-11T03:40:20.504Z,3.20
2017-09-11T03:41:20.458Z,3.60
2017-09-11T03:42:20.423Z,3.80
2017-09-11T03:43:20.388Z,3.70
2017-09-11T03:44:20.351Z,4.50
2017-09-11T03:45:20.317Z,3.50
2017-09-11T03:46:20.280Z,3.40
2017-09-11T03:47:20.244Z,3.60
2017-09-11T03:48:20.212Z,3.70
2017-09-11T03:49:20.175Z,3.50
2017-09-11T03:50:20.140Z,3.70
2017-09-11T03:51:20.105Z,3.70
2017-09-11T03:52:20.068Z,3.70
2017-09-11T03:53:20.045Z,3.50
2017-09-11T03:54:20.002Z,3.80
2017-09-11T03:55:19.963Z,3.50
2017-09-11T03:56:19.929Z,3.90
2017-09-11T03:57:19.891Z,3.40
2017-09-11T03:58:19.854Z,3.70
2017-09-11T03:59:19.818Z,3.20
2017-09-11T04:00:19.782Z,3.40
2017-09-11T04:01:19.747Z,3.70
2017-09-11T04:02:19.713Z,3.50
2017-09-11T04:03:19.677Z,3.60
2017-09-11T04:04:19.637Z,4.00
2017-09-11T04:05:19.618Z,3.80
2017-09-11T04:06:19.573Z,3.80
2017-09-11T04:07:19.535Z,3.80
2017-09-11T04:08:19.501Z,3.30
2017-09-11T04:09:19.464Z,3.50
2017-09-11T04:10:19.440Z,3.70
2017-09-11T04:11:19.394Z,3.80
2017-09-11T04:12:19.355Z,3.70
2017-09-11T04:13:19.323Z,3.60
2017-09-11T04:14:19.296Z,3.50
2017-09-11T04:15:19.250Z,3.50
2017-09-11T04:16:19.215Z,3.80
2017-09-11T04:17:19.183Z,3.60
2017-09-11T04:18:19.146Z,3.60
2017-09-11T04:19:19.109Z,3.30
2017-09-11T04:20:19.081Z,3.40
2017-09-11T04:21:19.046Z,3.70
2017-09-11T04:22:19.002Z,3.50
2017-09-11T04:23:18.970Z,3.40
2017-09-11T04:24:18.932Z,3.60
2017-09-11T04:25:18.904Z,3.50
2017-09-11T04:26:18.861Z,4.20
2017-09-11T04:27:18.825Z,3.90
2017-09-11T04:28:18.791Z,3.70
2017-09-11T04:29:18.761Z,3.60
2017-09-11T04:30:18.743Z,3.60
2017-09-11T04:31:18.694Z,3.30
2017-09-11T04:32:18.649Z,3.60
2017-09-11T04:33:18.616Z,3.60
2017-09-11T04:34:18.582Z,3.60
2017-09-11T04:35:18.545Z,3.30
2017-09-11T04:36:18.509Z,3.60
2017-09-11T04:37:18.476Z,3.50
2017-09-11T04:38:18.434Z,3.50
2017-09-11T04:39:18.401Z,3.50
2017-09-11T04:40:18.366Z,3.90
2017-09-11T04:41:18.339Z,3.60
2017-09-11T04:42:18.300Z,3.40
2017-09-11T04:43:18.261Z,3.50
2017-09-11T04:44:18.229Z,3.70
2017-09-11T04:45:18.194Z,3.70
2017-09-11T04:46:18.163Z,3.50
2017-09-11T04:47:18.119Z,3.30
2017-09-11T04:48:18.122Z,3.10
2017-09-11T04:49:18.054Z,3.80
2017-09-11T04:50:18.015Z,3.30
2017-09-11T04:51:17.977Z,3.30
2017-09-11T04:52:17.960Z,3.40
2017-09-11T04:53:17.908Z,3.20
2017-09-11T04:54:17.873Z,3.30
2017-09-11T04:55:17.837Z,3.50
2017-09-11T04:56:17.801Z,3.40
2017-09-11T04:57:17.771Z,3.70
2017-09-11T04:58:17.735Z,3.40
2017-09-11T04:59:17.700Z,3.30
2017-09-11T05:00:17.664Z,3.20
2017-09-11T05:01:17.631Z,3.20
2017-09-11T05:02:17.597Z,3.40
2017-09-11T05:03:17.560Z,3.40
2017-09-11T05:04:17.531Z,3.30
2017-09-11T05:05:17.495Z,3.40
2017-09-11T05:06:17.462Z,3.10
2017-09-11T05:07:17.431Z,3.40
2017-09-11T05:08:17.394Z,3.30
2017-09-11T05:09:17.368Z,3.00
2017-09-11T05:10:17.332Z,3.20
2017-09-11T05:11:17.309Z,3.50
2017-09-11T05:12:17.264Z,3.10
2017-09-11T05:13:17.229Z,3.30
2017-09-11T05:14:17.196Z,3.10
2017-09-11T05:15:17.169Z,3.30
2017-09-11T05:16:17.139Z,3.10
2017-09-11T05:17:17.101Z,3.40
2017-09-11T05:18:17.065Z,3.10
2017-09-11T05:19:17.030Z,3.40
2017-09-11T05:20:16.998Z,3.20
2017-09-11T05:21:16.971Z,4.00
2017-09-11T05:22:16.936Z,3.70
2017-09-11T05:23:16.912Z,3.40
2017-09-11T05:24:16.872Z,3.10
2017-09-11T05:25:16.849Z,3.40
2017-09-11T05:26:16.811Z,3.00
2017-09-11T05:27:16.781Z,3.10
2017-09-11T05:28:16.744Z,3.20
2017-09-11T05:29:16.718Z,3.00
2017-09-11T05:30:16.684Z,2.70
2017-09-11T05:31:16.657Z,3.20
2017-09-11T05:32:16.633Z,3.00
2017-09-11T05:33:16.628Z,3.30
2017-09-11T05:34:16.584Z,3.40
2017-09-11T05:35:16.577Z,3.00
2017-09-11T05:36:16.509Z,2.80
2017-09-11T05:37:16.471Z,3.00
2017-09-11T05:38:16.440Z,2.90
2017-09-11T05:39:16.414Z,2.70
2017-09-11T05:40:16.380Z,3.00
2017-09-11T05:41:16.353Z,2.70
2017-09-11T05:42:16.327Z,3.10
2017-09-11T05:43:16.289Z,3.00
2017-09-11T05:44:16.263Z,3.90
2017-09-11T05:45:16.234Z,2.80
2017-09-11T05:46:16.208Z,3.10
2017-09-11T05:47:16.172Z,3.30
2017-09-11T05:48:16.188Z,3.20
2017-09-11T05:49:16.119Z,3.20
2017-09-11T05:50:16.090Z,2.70
2017-09-11T05:51:16.075Z,3.10
2017-09-11T05:52:16.056Z,4.30
2017-09-11T05:53:16.027Z,3.30
2017-09-11T05:54:15.975Z,3.00
2017-09-11T05:55:15.940Z,2.60
2017-09-11T05:56:15.958Z,2.80
2017-09-11T05:57:15.898Z,2.80
2017-09-11T05:58:15.857Z,2.80
2017-09-11T05:59:15.826Z,3.10
2017-09-11T06:00:15.793Z,2.80
2017-09-11T06:01:15.776Z,2.60
2017-09-11T06:02:15.737Z,2.60
2017-09-11T06:03:15.726Z,2.70
2017-09-11T06:04:15.674Z,3.10
2017-09-11T06:05:15.651Z,3.00
2017-09-11T06:06:15.617Z,2.70
2017-09-11T06:07:15.953Z,2.90
2017-09-11T06:08:15.558Z,2.70
2017-09-11T06:09:15.532Z,2.60
2017-09-11T06:10:15.510Z,2.50
2017-09-11T06:11:15.480Z,2.60
2017-09-11T06:12:15.449Z,2.40
2017-09-11T06:13:15.418Z,2.60
2017-09-11T06:14:15.391Z,2.40
2017-09-11T06:15:15.368Z,2.60
2017-09-11T06:16:15.338Z,2.60
2017-09-11T06:17:15.309Z,2.50
2017-09-11T06:18:15.280Z,2.70
2017-09-11T06:19:15.258Z,3.30
2017-09-11T06:20:15.226Z,2.70
2017-09-11T06:21:15.198Z,2.70
2017-09-11T06:22:15.171Z,3.10
2017-09-11T06:23:15.141Z,2.80
2017-09-11T06:24:15.118Z,2.50
2017-09-11T06:25:15.087Z,2.60
2017-09-11T06:26:15.068Z,2.40
2017-09-11T06:27:15.035Z,2.50
2017-09-11T06:28:15.005Z,2.80
2017-09-11T06:29:14.983Z,2.70
2017-09-11T06:30:14.960Z,2.90
2017-09-11T06:31:14.926Z,2.60
2017-09-11T06:32:14.897Z,2.40
2017-09-11T06:33:14.868Z,2.50
2017-09-11T06:34:14.850Z,2.40
2017-09-11T06:35:14.818Z,2.50
2017-09-11T06:36:14.789Z,2.60
2017-09-11T06:37:14.760Z,2.40
2017-09-11T06:38:14.735Z,2.40
2017-09-11T06:39:14.707Z,2.80
2017-09-11T06:40:14.680Z,3.30
2017-09-11T06:41:14.665Z,3.10
2017-09-11T06:42:14.626Z,2.70
2017-09-11T06:43:14.606Z,2.60
2017-09-11T06:44:14.574Z,2.50
2017-09-11T06:45:14.551Z,2.40
2017-09-11T06:46:14.523Z,2.70
2017-09-11T06:47:14.494Z,2.60
2017-09-11T06:48:14.469Z,2.50
2017-09-11T06:49:14.446Z,2.20
2017-09-11T06:50:14.418Z,2.50
2017-09-11T06:51:14.388Z,2.50
2017-09-11T06:52:14.361Z,2.20
2017-09-11T06:53:14.341Z,2.40
2017-09-11T06:54:14.310Z,2.30
2017-09-11T06:55:14.284Z,2.20
2017-09-11T06:56:14.256Z,2.30
2017-09-11T06:57:14.236Z,2.50
2017-09-11T06:58:14.204Z,2.30
2017-09-11T06:59:14.174Z,2.10
2017-09-11T07:00:14.149Z,2.50
2017-09-11T07:01:14.126Z,2.60
2017-09-11T07:02:14.097Z,2.80
2017-09-11T07:03:14.067Z,2.60
2017-09-11T07:04:14.043Z,2.50
2017-09-11T07:05:14.016Z,2.70
2017-09-11T07:06:13.987Z,2.30
2017-09-11T07:07:13.961Z,2.70
2017-09-11T07:08:13.932Z,2.50
2017-09-11T07:09:13.903Z,2.60
2017-09-11T07:10:13.877Z,2.30
2017-09-11T07:11:13.850Z,2.30
2017-09-11T07:12:13.823Z,3.00
2017-09-11T07:13:13.798Z,2.60
2017-09-11T07:14:13.765Z,2.70
2017-09-11T07:15:13.740Z,2.70
2017-09-11T07:16:13.707Z,2.40
2017-09-11T07:17:13.677Z,2.60
2017-09-11T07:18:13.662Z,2.40
2017-09-11T07:19:13.626Z,2.40
2017-09-11T07:20:13.593Z,4.10
2017-09-11T07:21:13.563Z,2.90
2017-09-11T07:22:13.534Z,3.00
2017-09-11T07:23:13.506Z,2.50
2017-09-11T07:24:13.475Z,2.60
2017-09-11T07:25:13.446Z,2.60
2017-09-11T07:26:13.422Z,2.70
2017-09-11T07:27:13.387Z,2.30
2017-09-11T07:28:13.366Z,2.70
2017-09-11T07:29:13.334Z,2.50
2017-09-11T07:30:13.301Z,2.50
2017-09-11T07:31:13.284Z,3.10
2017-09-11T07:32:13.244Z,2.40
2017-09-11T07:33:13.216Z,2.70
2017-09-11T07:34:13.181Z,2.50
2017-09-11T07:35:13.150Z,2.50
2017-09-11T07:36:13.138Z,2.40
2017-09-11T07:37:13.089Z,2.30
2017-09-11T07:38:13.064Z,2.40
2017-09-11T07:39:13.038Z,2.50
2017-09-11T07:40:13.009Z,2.60
2017-09-11T07:41:12.973Z,2.30
2017-09-11T07:42:12.942Z,2.60
2017-09-11T07:43:12.908Z,2.30
2017-09-11T07:44:12.882Z,2.40
2017-09-11T07:45:12.851Z,2.30
2017-09-11T07:46:12.820Z,2.40
2017-09-11T07:47:12.793Z,2.50
2017-09-11T07:48:12.780Z,2.70
2017-09-11T07:49:12.733Z,2.70
2017-09-11T07:50:12.705Z,2.60
2017-09-11T07:51:12.672Z,2.40
2017-09-11T07:52:12.645Z,2.70
2017-09-11T07:53:12.621Z,3.10
2017-09-11T07:54:12.584Z,2.70
2017-09-11T07:55:12.554Z,2.80
2017-09-11T07:56:12.523Z,3.00
2017-09-11T07:57:12.489Z,2.40
2017-09-11T07:58:12.463Z,2.60
2017-09-11T07:59:12.434Z,2.50
2017-09-11T08:00:12.410Z,2.20
2017-09-11T08:01:12.379Z,2.40
2017-09-11T08:02:12.345Z,2.70
2017-09-11T08:03:12.310Z,2.40
2017-09-11T08:04:12.308Z,2.80
2017-09-11T08:05:12.249Z,2.20
2017-09-11T08:06:12.236Z,2.20
2017-09-11T08:07:12.207Z,2.50
2017-09-11T08:08:12.160Z,2.30
2017-09-11T08:09:12.135Z,2.60
2017-09-11T08:10:12.108Z,2.40
2017-09-11T08:11:12.110Z,2.40
2017-09-11T08:12:12.176Z,2.70
2017-09-11T08:13:12.019Z,2.40
2017-09-11T08:14:11.985Z,2.10
2017-09-11T08:15:11.957Z,2.10
2017-09-11T08:16:11.942Z,2.70
2017-09-11T08:17:11.904Z,2.00
2017-09-11T08:18:11.875Z,1.90
2017-09-11T08:19:11.851Z,1.80
2017-09-11T08:20:11.828Z,2.00
2017-09-11T08:21:11.795Z,2.00
2017-09-11T08:22:11.828Z,2.30
2017-09-11T08:23:11.719Z,2.30
2017-09-11T08:24:11.795Z,2.50
2017-09-11T08:25:11.684Z,3.10
2017-09-11T08:26:11.630Z,2.50
2017-09-11T08:27:11.603Z,2.20
2017-09-11T08:28:11.621Z,2.70
2017-09-11T08:29:11.601Z,2.10
2017-09-11T08:30:11.581Z,2.30
2017-09-11T08:31:11.583Z,2.30
2017-09-11T08:32:11.460Z,2.80
2017-09-11T08:33:11.418Z,2.70
2017-09-11T08:34:11.398Z,2.10
2017-09-11T08:35:11.362Z,2.20
2017-09-11T08:36:11.353Z,2.10
2017-09-11T08:37:11.316Z,2.10
2017-09-11T08:38:11.412Z,2.40
2017-09-11T08:39:11.247Z,2.10
2017-09-11T08:40:11.212Z,1.70
2017-09-11T08:41:11.216Z,1.90
2017-09-11T08:42:11.216Z,2.00
2017-09-11T08:43:11.153Z,2.00
2017-09-11T08:44:11.158Z,2.00
2017-09-11T08:45:11.078Z,1.90
2017-09-11T08:46:11.055Z,2.00
2017-09-11T08:47:11.012Z,2.20
2017-09-11T08:48:10.970Z,2.70
2017-09-11T08:49:10.941Z,2.50
2017-09-11T08:50:10.925Z,2.50
2017-09-11T08:51:10.881Z,2.30
2017-09-11T08:52:10.852Z,2.30
2017-09-11T08:53:10.823Z,2.20
2017-09-11T08:54:10.793Z,2.30
2017-09-11T08:55:10.762Z,2.00
2017-09-11T08:56:10.731Z,1.90
2017-09-11T08:57:10.700Z,1.90
2017-09-11T08:58:10.672Z,2.20
2017-09-11T08:59:10.641Z,1.90
2017-09-11T09:00:10.621Z,1.90
2017-09-11T09:01:10.584Z,1.80
2017-09-11T09:02:10.562Z,2.20
2017-09-11T09:03:10.529Z,2.00
2017-09-11T09:04:10.496Z,1.90
2017-09-11T09:05:10.463Z,2.20
2017-09-11T09:06:10.436Z,1.90
2017-09-11T09:07:10.403Z,2.00
2017-09-11T09:08:10.381Z,1.90
2017-09-11T09:09:10.344Z,2.10
2017-09-11T09:10:10.315Z,1.90
2017-09-11T09:11:10.286Z,1.70
2017-09-11T09:12:10.255Z,1.80
2017-09-11T09:13:10.234Z,2.00
2017-09-11T09:14:10.197Z,2.20
2017-09-11T09:15:10.166Z,2.30
2017-09-11T09:16:10.136Z,2.20
2017-09-11T09:17:10.107Z,2.30
2017-09-11T09:18:10.082Z,2.10
2017-09-11T09:19:10.051Z,1.90
2017-09-11T09:20:10.027Z,1.90
2017-09-11T09:21:09.993Z,1.80
2017-09-11T09:22:09.961Z,2.00
2017-09-11T09:23:09.932Z,2.40
2017-09-11T09:24:09.908Z,2.10
2017-09-11T09:25:09.886Z,2.10
2017-09-11T09:26:09.850Z,1.80
2017-09-11T09:27:09.816Z,2.10
2017-09-11T09:28:09.783Z,2.10
2017-09-11T09:29:09.753Z,1.90
2017-09-11T09:30:09.723Z,1.80
2017-09-11T09:31:09.694Z,2.40
2017-09-11T09:32:09.665Z,2.30
2017-09-11T09:33:09.643Z,2.20
2017-09-11T09:34:09.606Z,2.20
2017-09-11T09:35:09.577Z,2.00
2017-09-11T09:36:09.557Z,2.20
2017-09-11T09:37:09.533Z,1.90
2017-09-11T09:38:09.488Z,2.30
2017-09-11T09:39:09.456Z,2.60
2017-09-11T09:40:09.433Z,1.80
2017-09-11T09:41:09.400Z,2.40
2017-09-11T09:42:09.369Z,4.10
2017-09-11T09:43:09.337Z,4.30
2017-09-11T09:44:09.312Z,2.60
2017-09-11T09:45:09.280Z,2.40
2017-09-11T09:46:09.261Z,2.40
2017-09-11T09:47:09.220Z,2.10
2017-09-11T09:48:09.193Z,2.40
2017-09-11T09:49:09.161Z,2.10
2017-09-11T09:50:09.141Z,2.50
2017-09-11T09:51:09.104Z,1.90
2017-09-11T09:52:09.075Z,1.70
2017-09-11T09:53:09.064Z,1.80
2017-09-11T09:54:09.017Z,1.80
2017-09-11T09:55:09.005Z,1.80
2017-09-11T09:56:08.958Z,1.70
2017-09-11T09:57:08.928Z,2.00
2017-09-11T09:58:08.909Z,1.90
2017-09-11T09:59:08.870Z,2.10
2017-09-11T10:00:08.881Z,1.90
2017-09-11T10:01:08.812Z,1.80
2017-09-11T10:02:08.781Z,2.70
2017-09-11T10:03:08.754Z,2.60
2017-09-11T10:04:08.725Z,2.80
2017-09-11T10:05:08.693Z,2.50
2017-09-11T10:06:08.665Z,2.00
2017-09-11T10:07:08.635Z,2.30
2017-09-11T10:08:08.605Z,2.50
2017-09-11T10:09:08.577Z,1.80
2017-09-11T10:10:08.553Z,1.90
2017-09-11T10:11:08.522Z,1.90
2017-09-11T10:12:08.497Z,2.40
2017-09-11T10:13:08.459Z,2.20
2017-09-11T10:14:08.431Z,1.90
2017-09-11T10:15:08.400Z,1.90
2017-09-11T10:16:08.369Z,2.00
2017-09-11T10:17:08.340Z,2.00
2017-09-11T10:18:08.323Z,2.70
2017-09-11T10:19:08.290Z,2.20
2017-09-11T10:20:08.253Z,2.00
2017-09-11T10:21:08.220Z,2.00
2017-09-11T10:22:08.196Z,2.10
2017-09-11T10:23:08.172Z,2.40
2017-09-11T10:24:08.142Z,2.40
2017-09-11T10:25:08.105Z,2.20
2017-09-11T10:26:08.084Z,2.20
2017-09-11T10:27:08.053Z,2.00
2017-09-11T10:28:08.017Z,2.10
2017-09-11T10:29:07.995Z,2.00
2017-09-11T10:30:07.970Z,2.10
2017-09-11T10:31:07.941Z,2.10
2017-09-11T10:32:07.907Z,2.10
2017-09-11T10:33:07.874Z,2.00
2017-09-11T10:34:07.849Z,2.00
2017-09-11T10:35:07.814Z,2.00
2017-09-11T10:36:07.817Z,1.80
2017-09-11T10:37:07.839Z,1.60
2017-09-11T10:38:07.730Z,2.10
2017-09-11T10:39:07.752Z,2.50
2017-09-11T10:40:07.677Z,1.90
2017-09-11T10:41:07.644Z,2.00
2017-09-11T10:42:07.615Z,2.00
2017-09-11T10:43:07.613Z,1.90
2017-09-11T10:44:07.552Z,2.50
2017-09-11T10:45:07.577Z,3.40
2017-09-11T10:46:07.519Z,3.10
2017-09-11T10:47:07.473Z,2.20
2017-09-11T10:48:07.480Z,2.40
2017-09-11T10:49:07.416Z,2.20
2017-09-11T10:50:07.391Z,2.10
2017-09-11T10:51:07.366Z,2.30
2017-09-11T10:52:07.329Z,2.10
2017-09-11T10:53:07.306Z,1.90
2017-09-11T10:54:07.276Z,1.90
2017-09-11T10:55:07.278Z,1.90
2017-09-11T10:56:07.254Z,2.10
2017-09-11T10:57:07.209Z,2.20
2017-09-11T10:58:07.196Z,1.90
2017-09-11T10:59:07.211Z,1.90
2017-09-11T11:00:07.107Z,1.70
2017-09-11T11:01:07.088Z,1.70
2017-09-11T11:02:07.059Z,1.90
2017-09-11T11:03:07.049Z,2.60
2017-09-11T11:04:07.006Z,2.20
2017-09-11T11:05:06.975Z,2.10
2017-09-11T11:06:06.937Z,2.00
2017-09-11T11:07:06.949Z,2.10
2017-09-11T11:08:06.878Z,2.20
2017-09-11T11:09:06.934Z,2.60
2017-09-11T11:10:06.818Z,2.40
2017-09-11T11:11:06.789Z,2.20
2017-09-11T11:12:06.792Z,2.20
2017-09-11T11:13:06.733Z,2.80
2017-09-11T11:14:06.715Z,3.50
2017-09-11T11:15:06.724Z,2.60
2017-09-11T11:16:06.675Z,2.20
2017-09-11T11:17:06.653Z,2.10
2017-09-11T11:18:06.738Z,2.00
2017-09-11T11:19:06.651Z,1.90
2017-09-11T11:20:06.544Z,2.00
2017-09-11T11:21:06.518Z,1.90
2017-09-11T11:22:06.509Z,2.40
2017-09-11T11:23:06.463Z,2.20
2017-09-11T11:24:06.454Z,2.20
2017-09-11T11:25:06.401Z,2.00
2017-09-11T11:26:06.380Z,2.20
2017-09-11T11:27:06.347Z,2.30
2017-09-11T11:28:06.323Z,2.00
2017-09-11T11:29:06.298Z,2.50
2017-09-11T11:30:06.267Z,3.20
2017-09-11T11:31:06.255Z,2.70
2017-09-11T11:32:06.210Z,3.60
2017-09-11T11:33:06.189Z,2.00
2017-09-11T11:34:06.158Z,2.00
2017-09-11T11:35:06.138Z,1.70
2017-09-11T11:36:06.108Z,1.90
2017-09-11T11:37:06.070Z,1.50
2017-09-11T11:38:06.041Z,1.60
2017-09-11T11:39:06.015Z,1.90
2017-09-11T11:40:05.986Z,2.10
2017-09-11T11:41:05.960Z,1.90
2017-09-11T11:42:05.932Z,2.20
2017-09-11T11:43:05.905Z,2.20
2017-09-11T11:44:05.883Z,1.90
2017-09-11T11:45:05.849Z,1.90
2017-09-11T11:46:05.819Z,2.10
2017-09-11T11:47:05.793Z,2.00
2017-09-11T11:48:05.763Z,2.00
2017-09-11T11:49:05.748Z,2.30
2017-09-11T11:50:05.711Z,1.90
2017-09-11T11:51:05.678Z,1.80
2017-09-11T11:52:05.652Z,2.10
2017-09-11T11:53:05.630Z,1.70
2017-09-11T11:54:05.594Z,1.30
2017-09-11T11:55:05.588Z,1.40
2017-09-11T11:56:05.543Z,1.90
2017-09-11T11:57:05.518Z,2.60
2017-09-11T11:58:05.482Z,1.90
2017-09-11T11:59:05.454Z,1.60
2017-09-11T12:00:05.428Z,1.50
2017-09-11T12:01:05.402Z,1.80
2017-09-11T12:02:05.378Z,1.80
2017-09-11T12:03:05.343Z,1.90
2017-09-11T12:04:05.316Z,1.60
2017-09-11T12:05:05.285Z,1.60
2017-09-11T12:06:05.275Z,1.80
2017-09-11T12:07:05.229Z,1.50
2017-09-11T12:08:05.202Z,1.90
2017-09-11T12:09:05.175Z,1.70
2017-09-11T12:10:05.147Z,1.80
2017-09-11T12:11:05.124Z,1.60
2017-09-11T12:12:05.090Z,1.70
2017-09-11T12:13:05.073Z,1.80
2017-09-11T12:14:05.063Z,1.80
2017-09-11T12:15:05.010Z,1.70
2017-09-11T12:16:04.981Z,1.80
2017-09-11T12:17:04.951Z,2.00
2017-09-11T12:18:04.923Z,1.90
2017-09-11T12:19:04.927Z,2.00
2017-09-11T12:20:04.865Z,2.20
2017-09-11T12:21:04.847Z,2.30
2017-09-11T12:22:04.809Z,2.10
2017-09-11T12:23:04.791Z,2.00
2017-09-11T12:24:04.760Z,2.10
2017-09-11T12:25:04.725Z,2.20
2017-09-11T12:26:04.698Z,2.20
2017-09-11T12:27:04.676Z,2.00
2017-09-11T12:28:04.639Z,2.20
2017-09-11T12:29:04.613Z,2.40
2017-09-11T12:30:04.595Z,2.20
2017-09-11T12:31:04.556Z,2.10
2017-09-11T12:32:04.530Z,1.90
2017-09-11T12:33:04.502Z,1.80
2017-09-11T12:34:04.471Z,1.70
2017-09-11T12:35:04.446Z,1.90
2017-09-11T12:36:04.436Z,2.00
2017-09-11T12:37:04.388Z,3.00
2017-09-11T12:38:04.361Z,3.20
2017-09-11T12:39:04.336Z,3.00
2017-09-11T12:40:04.307Z,2.20
2017-09-11T12:41:04.299Z,1.60
2017-09-11T12:42:04.249Z,2.10
2017-09-11T12:43:04.221Z,2.60
2017-09-11T12:44:04.199Z,1.90
2017-09-11T12:45:04.163Z,1.50
2017-09-11T12:46:04.147Z,1.80
2017-09-11T12:47:04.112Z,2.00
2017-09-11T12:48:04.086Z,1.70
2017-09-11T12:49:04.053Z,2.10
2017-09-11T12:50:04.032Z,2.40
2017-09-11T12:51:04.002Z,2.20
2017-09-11T12:52:03.969Z,2.30
2017-09-11T12:53:03.940Z,2.10
2017-09-11T12:54:03.909Z,2.10
2017-09-11T12:55:03.882Z,2.00
2017-09-11T12:56:03.853Z,1.80
2017-09-11T12:57:03.832Z,1.90
2017-09-11T12:58:03.796Z,2.00
2017-09-11T12:59:03.770Z,1.80
2017-09-11T13:00:03.740Z,1.80
2017-09-11T13:01:03.726Z,1.70
2017-09-11T13:02:03.687Z,1.70
2017-09-11T13:03:03.655Z,1.80
2017-09-11T13:04:03.626Z,1.70
2017-09-11T13:05:03.596Z,1.60
2017-09-11T13:06:03.575Z,1.70
2017-09-11T13:07:03.538Z,1.70
2017-09-11T13:08:03.514Z,1.80
2017-09-11T13:09:03.496Z,1.80
2017-09-11T13:10:03.460Z,2.50
2017-09-11T13:11:03.427Z,2.00
2017-09-11T13:12:03.401Z,2.60
2017-09-11T13:13:03.379Z,2.90
2017-09-11T13:14:03.342Z,2.60
2017-09-11T13:15:03.316Z,2.20
2017-09-11T13:16:03.295Z,2.20
2017-09-11T13:17:03.263Z,2.00
2017-09-11T13:18:03.249Z,1.50